Аэропорт: Шпаковское. Ставрополь

ICAO: URMT

METAR:
2019-09-16 01:00:00
URMT 160100Z 19002MPS CAVOK 11/06 Q1020 R07/010070 NOSIG RMK QFE725
METAR:
2019-09-15 23:00:00
TAF URMT 152300Z 1600/1609 13003G08MPS 9999 SCT020 TEMPO 1600/1603 VRB01MPS 3100 BR SCT011 BKN020